createdAt,value
2018-04-23T00:01:12.835Z,45.53
2018-04-23T00:03:41.100Z,46.14
2018-04-23T00:06:09.386Z,45.81
2018-04-23T00:08:37.701Z,47.27
2018-04-23T00:11:06.144Z,46.52
2018-04-23T00:13:34.412Z,47.43
2018-04-23T00:16:02.708Z,47.39
2018-04-23T00:18:30.969Z,46.67
2018-04-23T00:21:05.069Z,47.61
2018-04-23T00:23:38.367Z,48.09
2018-04-23T00:26:07.440Z,47.77
2018-04-23T00:28:35.726Z,48.62
2018-04-23T00:31:04.010Z,49.23
2018-04-23T00:33:32.295Z,50.18
2018-04-23T00:36:00.560Z,49.33
2018-04-23T00:38:28.838Z,49.88
2018-04-23T00:40:57.102Z,49.41
2018-04-23T00:43:25.412Z,50.03
2018-04-23T00:45:53.663Z,51.19
2018-04-23T00:48:22.019Z,49.48
2018-04-23T00:50:50.460Z,49.72
2018-04-23T00:53:37.298Z,48.59
2018-04-23T00:56:05.663Z,48.71
2018-04-23T00:58:34.724Z,49.74
2018-04-23T01:01:03.050Z,48.16
2018-04-23T01:03:31.331Z,48.86
2018-04-23T01:05:59.597Z,49.50
2018-04-23T01:08:27.849Z,48.89
2018-04-23T01:10:57.090Z,48.94
2018-04-23T01:13:25.361Z,49.63
2018-04-23T01:15:53.634Z,50.32
2018-04-23T01:18:21.897Z,50.88
2018-04-23T01:20:50.165Z,51.92
2018-04-23T01:23:18.442Z,52.02
2018-04-23T01:25:47.028Z,52.48
2018-04-23T01:28:15.279Z,50.11
2018-04-23T01:30:44.405Z,49.83
2018-04-23T01:33:13.167Z,50.70
2018-04-23T01:35:42.199Z,50.32
2018-04-23T01:38:10.818Z,50.42
2018-04-23T01:40:39.144Z,50.77
2018-04-23T01:43:07.438Z,50.74
2018-04-23T01:45:35.701Z,50.00
2018-04-23T01:48:04.067Z,50.38
2018-04-23T01:50:32.526Z,49.35
2018-04-23T01:53:01.551Z,49.36
2018-04-23T01:55:29.858Z,49.22
2018-04-23T01:57:58.921Z,48.79
2018-04-23T02:00:27.207Z,48.70
2018-04-23T02:02:55.454Z,49.50
2018-04-23T02:05:23.756Z,49.31
2018-04-23T02:07:52.028Z,49.54
2018-04-23T02:10:20.318Z,50.66
2018-04-23T02:12:48.611Z,49.90
2018-04-23T02:15:17.163Z,51.25
2018-04-23T02:17:45.449Z,49.88
2018-04-23T02:20:13.967Z,51.32
2018-04-23T02:22:42.251Z,49.65
2018-04-23T02:25:11.270Z,50.55
2018-04-23T02:27:39.560Z,50.52
2018-04-23T02:30:07.821Z,50.75
2018-04-23T02:32:36.111Z,51.24
2018-04-23T02:35:04.364Z,50.40
2018-04-23T02:37:32.631Z,50.63
2018-04-23T02:40:00.889Z,50.94
2018-04-23T02:42:29.955Z,51.24
2018-04-23T02:44:58.207Z,50.35
2018-04-23T02:47:26.494Z,49.79
2018-04-23T02:49:54.765Z,50.09
2018-04-23T02:52:23.047Z,51.51
2018-04-23T02:54:51.344Z,51.03
2018-04-23T02:57:19.599Z,50.43
2018-04-23T02:59:47.867Z,50.84
2018-04-23T03:02:16.144Z,50.69
2018-04-23T03:04:44.412Z,49.74
2018-04-23T03:07:12.690Z,49.36
2018-04-23T03:09:40.957Z,49.70
2018-04-23T03:12:09.219Z,49.91
2018-04-23T03:14:37.517Z,49.59
2018-04-23T03:17:05.777Z,49.46
2018-04-23T03:19:34.149Z,49.64
2018-04-23T03:22:02.418Z,48.95
2018-04-23T03:24:30.718Z,49.40
2018-04-23T03:26:59.028Z,49.03
2018-04-23T03:29:27.287Z,48.65
2018-04-23T03:31:55.594Z,47.94
2018-04-23T03:34:24.626Z,48.44
2018-04-23T03:36:52.906Z,48.43
2018-04-23T03:39:21.298Z,49.31
2018-04-23T03:41:49.557Z,50.29
2018-04-23T03:44:17.857Z,49.90
2018-04-23T03:46:46.126Z,49.42
2018-04-23T03:49:14.393Z,49.63
2018-04-23T03:51:42.713Z,49.87
2018-04-23T03:54:11.761Z,50.78
2018-04-23T03:56:40.068Z,49.42
2018-04-23T03:59:08.319Z,50.85
2018-04-23T04:01:36.585Z,50.61
2018-04-23T04:04:04.853Z,50.85
2018-04-23T04:06:33.228Z,50.77
2018-04-23T04:09:01.476Z,51.60
2018-04-23T04:11:29.784Z,51.25
2018-04-23T04:14:15.811Z,51.45
2018-04-23T04:17:00.653Z,51.64
2018-04-23T04:19:28.981Z,51.42
2018-04-23T04:21:57.281Z,51.89
2018-04-23T04:24:25.929Z,52.04
2018-04-23T04:26:54.985Z,51.03
2018-04-23T04:29:23.237Z,52.18
2018-04-23T04:31:51.626Z,51.89
2018-04-23T04:34:19.891Z,51.85
2018-04-23T04:36:48.163Z,51.33
2018-04-23T04:39:16.466Z,52.68
2018-04-23T04:41:44.918Z,52.39
2018-04-23T04:44:13.196Z,52.00
2018-04-23T04:46:41.462Z,51.41
2018-04-23T04:49:09.763Z,52.89
2018-04-23T04:51:38.068Z,53.06
2018-04-23T04:54:06.349Z,52.05
2018-04-23T04:56:35.370Z,52.56
2018-04-23T04:59:03.671Z,53.62
2018-04-23T05:01:31.964Z,53.25
2018-04-23T05:04:00.568Z,53.29
2018-04-23T05:06:28.845Z,52.63
2018-04-23T05:08:57.115Z,53.14
2018-04-23T05:11:25.359Z,54.08
2018-04-23T05:13:53.661Z,55.11
2018-04-23T05:16:22.057Z,54.79
2018-04-23T05:18:51.098Z,54.65
2018-04-23T05:21:19.373Z,54.32
2018-04-23T05:23:47.700Z,53.21
2018-04-23T05:26:15.895Z,54.16
2018-04-23T05:28:44.238Z,53.43
2018-04-23T05:31:12.601Z,54.74
2018-04-23T05:33:40.893Z,53.48
2018-04-23T05:36:09.922Z,52.51
2018-04-23T05:38:38.313Z,55.55
2018-04-23T05:41:07.523Z,54.92
2018-04-23T05:43:35.813Z,53.12
2018-04-23T05:46:04.119Z,54.00
2018-04-23T05:48:33.694Z,54.87
2018-04-23T05:51:01.959Z,54.36
2018-04-23T05:53:30.212Z,53.94
2018-04-23T05:55:58.499Z,55.53
2018-04-23T05:58:26.780Z,55.85
2018-04-23T06:00:55.661Z,52.80
2018-04-23T06:03:23.958Z,52.90
2018-04-23T06:05:52.222Z,54.20
2018-04-23T06:08:20.493Z,53.59
2018-04-23T06:10:48.864Z,52.70
2018-04-23T06:13:17.146Z,52.75
2018-04-23T06:15:45.422Z,53.15
2018-04-23T06:18:13.689Z,53.49
2018-04-23T06:20:41.965Z,56.68
2018-04-23T06:23:10.269Z,66.85
2018-04-23T06:25:38.747Z,71.73
2018-04-23T06:28:07.053Z,75.25
2018-04-23T06:30:36.212Z,81.86
2018-04-23T06:33:04.521Z,83.72
2018-04-23T06:35:33.575Z,84.98
2018-04-23T06:38:01.879Z,86.85
2018-04-23T06:40:30.159Z,87.77
2018-04-23T06:42:59.276Z,84.15
2018-04-23T06:45:27.554Z,84.47
2018-04-23T06:47:55.850Z,85.93
2018-04-23T06:50:24.303Z,84.34
2018-04-23T06:52:53.388Z,86.42
2018-04-23T06:55:22.422Z,88.19
2018-04-23T06:57:50.770Z,90.43
2018-04-23T07:00:19.039Z,90.09
2018-04-23T07:02:48.147Z,90.50
2018-04-23T07:05:16.422Z,91.07
2018-04-23T07:07:44.703Z,93.04
2018-04-23T07:10:13.008Z,89.08
2018-04-23T07:12:41.305Z,88.47
2018-04-23T07:15:09.613Z,87.12
2018-04-23T07:17:38.771Z,87.08
2018-04-23T07:20:07.248Z,86.94
2018-04-23T07:22:35.513Z,90.87
2018-04-23T07:25:03.795Z,92.01
2018-04-23T07:27:32.098Z,92.90
2018-04-23T07:30:01.199Z,92.74
2018-04-23T07:32:30.347Z,92.76
2018-04-23T07:34:58.759Z,92.46
2018-04-23T07:37:27.052Z,93.61
2018-04-23T07:39:56.150Z,92.90
2018-04-23T07:42:24.446Z,95.09
2018-04-23T07:44:52.741Z,94.02
2018-04-23T07:47:21.171Z,94.64
2018-04-23T07:49:50.954Z,94.52
2018-04-23T07:52:19.271Z,94.26
2018-04-23T07:54:48.325Z,93.92
2018-04-23T07:57:16.632Z,93.99
2018-04-23T07:59:45.733Z,93.14
2018-04-23T08:02:14.783Z,93.34
2018-04-23T08:04:43.211Z,92.77
2018-04-23T08:07:11.627Z,92.03
2018-04-23T08:09:39.903Z,89.86
2018-04-23T08:12:08.431Z,90.79
2018-04-23T08:14:37.501Z,91.97
2018-04-23T08:17:06.638Z,89.00
2018-04-23T08:19:34.928Z,90.31
2018-04-23T08:22:03.313Z,91.44
2018-04-23T08:24:31.597Z,91.39
2018-04-23T08:26:59.902Z,92.50
2018-04-23T08:29:28.216Z,91.90
2018-04-23T08:31:56.524Z,92.47
2018-04-23T08:34:24.892Z,94.34
2018-04-23T08:36:53.175Z,92.39
2018-04-23T08:39:21.447Z,92.37
2018-04-23T08:41:49.729Z,92.28
2018-04-23T08:44:18.134Z,91.88
2018-04-23T08:46:46.799Z,92.79
2018-04-23T08:49:15.157Z,93.49
2018-04-23T08:51:43.514Z,91.82
2018-04-23T08:54:11.803Z,90.14
2018-04-23T08:56:40.080Z,90.69
2018-04-23T08:59:08.363Z,90.70
2018-04-23T09:01:36.643Z,90.72
2018-04-23T09:04:04.927Z,91.08
2018-04-23T09:06:33.210Z,90.16
2018-04-23T09:09:01.502Z,91.26
2018-04-23T09:11:29.869Z,91.26
2018-04-23T09:13:58.143Z,90.13
2018-04-23T09:16:26.635Z,89.39
2018-04-23T09:18:55.682Z,88.91
2018-04-23T09:21:24.063Z,88.47
2018-04-23T09:23:52.638Z,88.28
2018-04-23T09:26:20.951Z,87.56
2018-04-23T09:28:49.236Z,89.83
2018-04-23T09:31:17.510Z,88.54
2018-04-23T09:33:45.814Z,88.83
2018-04-23T09:36:14.846Z,86.24
2018-04-23T09:38:43.154Z,84.52
2018-04-23T09:41:11.432Z,82.03
2018-04-23T09:43:39.809Z,79.72
2018-04-23T09:46:08.120Z,78.14
2018-04-23T09:48:37.253Z,75.53
2018-04-23T09:51:05.564Z,76.84
2018-04-23T09:53:33.871Z,74.09
2018-04-23T09:56:02.166Z,73.16
2018-04-23T09:58:30.442Z,70.42
2018-04-23T10:00:58.753Z,73.84
2018-04-23T10:03:27.088Z,72.77
2018-04-23T10:06:03.086Z,69.06
2018-04-23T10:08:31.335Z,64.05
2018-04-23T10:11:00.565Z,62.10
2018-04-23T10:13:28.905Z,62.53
2018-04-23T10:15:57.175Z,62.42
2018-04-23T10:18:25.452Z,63.29
2018-04-23T10:20:53.738Z,61.69
2018-04-23T10:23:22.226Z,64.14
2018-04-23T10:25:50.652Z,64.70
2018-04-23T10:28:18.912Z,58.57
2018-04-23T10:30:47.287Z,59.01
2018-04-23T10:33:15.597Z,59.99
2018-04-23T10:35:43.900Z,60.57
2018-04-23T10:38:12.181Z,62.61
2018-04-23T10:40:40.434Z,62.23
2018-04-23T10:43:08.718Z,62.25
2018-04-23T10:45:37.029Z,64.67
2018-04-23T10:48:05.337Z,67.42
2018-04-23T10:50:34.366Z,67.79
2018-04-23T10:53:02.672Z,67.07
2018-04-23T10:55:30.919Z,67.95
2018-04-23T10:57:59.559Z,68.06
2018-04-23T11:00:28.597Z,64.58
2018-04-23T11:02:56.926Z,68.88
2018-04-23T11:05:25.970Z,69.77
2018-04-23T11:07:54.248Z,70.20
2018-04-23T11:10:22.615Z,68.81
2018-04-23T11:12:50.914Z,66.96
2018-04-23T11:15:19.204Z,63.30
2018-04-23T11:17:48.988Z,60.47
2018-04-23T11:20:17.357Z,63.19
2018-04-23T11:22:45.638Z,66.86
2018-04-23T11:25:14.720Z,66.09
2018-04-23T11:27:42.977Z,67.47
2018-04-23T11:30:11.320Z,69.44
2018-04-23T11:32:39.603Z,69.36
2018-04-23T11:35:08.669Z,70.17
2018-04-23T11:37:37.130Z,69.97
2018-04-23T11:40:05.417Z,69.81
2018-04-23T11:42:33.701Z,70.47
2018-04-23T11:45:02.542Z,70.41
2018-04-23T11:47:30.772Z,68.47
2018-04-23T11:49:59.180Z,68.35
2018-04-23T11:52:28.245Z,68.26
2018-04-23T11:54:56.579Z,69.27
2018-04-23T11:57:24.871Z,68.80
2018-04-23T11:59:53.139Z,69.14
2018-04-23T12:02:21.418Z,67.97
2018-04-23T12:04:49.693Z,67.62
2018-04-23T12:07:17.979Z,68.12
2018-04-23T12:09:46.502Z,67.17
2018-04-23T12:12:15.570Z,65.84
2018-04-23T12:14:44.698Z,64.55
2018-04-23T12:17:13.764Z,63.66
2018-04-23T12:19:42.033Z,63.50
2018-04-23T12:22:11.097Z,64.89
2018-04-23T12:24:39.381Z,65.53
2018-04-23T12:27:07.851Z,66.45
2018-04-23T12:29:36.126Z,67.79
2018-04-23T12:32:04.472Z,67.16
2018-04-23T12:34:32.804Z,67.05
2018-04-23T12:37:01.252Z,67.29
2018-04-23T12:39:29.535Z,63.78
2018-04-23T12:41:57.833Z,62.02
2018-04-23T12:44:26.207Z,62.68
2018-04-23T12:46:54.522Z,61.22
2018-04-23T12:49:23.579Z,62.19
2018-04-23T12:51:51.853Z,61.60
2018-04-23T12:54:20.203Z,61.98
2018-04-23T12:56:48.500Z,61.89
2018-04-23T12:59:16.780Z,62.24
2018-04-23T13:01:45.101Z,60.77
2018-04-23T13:04:13.380Z,61.13
2018-04-23T13:06:41.811Z,61.48
2018-04-23T13:09:10.449Z,61.30
2018-04-23T13:11:38.734Z,61.47
2018-04-23T13:14:07.027Z,61.17
2018-04-23T13:16:35.308Z,62.84
2018-04-23T13:19:03.580Z,64.32
2018-04-23T13:21:31.837Z,63.13
2018-04-23T13:24:00.146Z,63.00
2018-04-23T13:26:28.450Z,63.27
2018-04-23T13:28:57.499Z,63.98
2018-04-23T13:31:25.838Z,63.94
2018-04-23T13:33:54.863Z,63.04
2018-04-23T13:36:23.227Z,63.43
2018-04-23T13:38:51.483Z,63.09
2018-04-23T13:41:19.755Z,63.10
2018-04-23T13:43:48.801Z,62.14
2018-04-23T13:46:17.115Z,62.63
2018-04-23T13:48:46.213Z,60.52
2018-04-23T13:51:15.303Z,62.36
2018-04-23T13:53:44.355Z,63.44
2018-04-23T13:56:12.750Z,63.12
2018-04-23T13:58:41.730Z,62.71
2018-04-23T14:01:10.035Z,62.94
2018-04-23T14:03:38.327Z,62.60
2018-04-23T14:06:07.372Z,62.17
2018-04-23T14:08:35.704Z,62.04
2018-04-23T14:11:03.984Z,62.75
2018-04-23T14:13:32.462Z,62.97
2018-04-23T14:16:00.739Z,64.21
2018-04-23T14:18:29.137Z,64.69
2018-04-23T14:20:57.410Z,64.72
2018-04-23T14:23:25.714Z,63.89
2018-04-23T14:25:54.094Z,64.78
2018-04-23T14:28:22.368Z,64.36
2018-04-23T14:30:50.674Z,64.90
2018-04-23T14:33:19.701Z,63.38
2018-04-23T14:35:47.975Z,62.43
2018-04-23T14:38:16.542Z,62.97
2018-04-23T14:40:44.824Z,63.77
2018-04-23T14:43:13.074Z,64.32
2018-04-23T14:45:42.131Z,64.11
2018-04-23T14:48:10.400Z,63.98
2018-04-23T14:50:38.687Z,65.11
2018-04-23T14:53:06.986Z,64.26
2018-04-23T14:55:35.301Z,63.89
2018-04-23T14:58:03.593Z,63.33
2018-04-23T15:00:31.875Z,63.46
2018-04-23T15:03:00.170Z,64.07
2018-04-23T15:05:28.499Z,63.37
2018-04-23T15:07:56.794Z,63.83
2018-04-23T15:10:25.127Z,63.83
2018-04-23T15:12:54.207Z,64.60
2018-04-23T15:15:22.563Z,64.91
2018-04-23T15:17:50.888Z,65.48
2018-04-23T15:20:19.199Z,65.97
2018-04-23T15:22:49.136Z,65.86
2018-04-23T15:25:17.432Z,66.73
2018-04-23T15:27:46.496Z,66.93
2018-04-23T15:30:14.810Z,68.03
2018-04-23T15:32:43.854Z,68.47
2018-04-23T15:35:12.136Z,68.93
2018-04-23T15:37:40.401Z,69.24
2018-04-23T15:40:08.673Z,69.75
2018-04-23T15:42:37.082Z,70.37
2018-04-23T15:45:05.355Z,70.29
2018-04-23T15:47:33.699Z,70.08
2018-04-23T15:50:02.063Z,70.54
2018-04-23T15:52:30.526Z,70.90
2018-04-23T15:54:58.884Z,71.06
2018-04-23T15:57:27.930Z,71.61
2018-04-23T15:59:56.205Z,71.45
2018-04-23T16:02:24.893Z,71.46
2018-04-23T16:04:53.174Z,71.33
2018-04-23T16:07:21.443Z,71.62
2018-04-23T16:09:49.765Z,71.56
2018-04-23T16:12:18.808Z,71.93
2018-04-23T16:14:47.381Z,72.37
2018-04-23T16:17:15.667Z,72.74
2018-04-23T16:19:43.995Z,72.98
2018-04-23T16:22:13.030Z,73.19
2018-04-23T16:24:41.342Z,73.81
2018-04-23T16:27:10.380Z,75.01
2018-04-23T16:29:38.723Z,75.94
2018-04-23T16:32:07.053Z,76.23
2018-04-23T16:34:35.338Z,76.86
2018-04-23T16:37:03.631Z,76.40
2018-04-23T16:39:32.009Z,76.11
2018-04-23T16:42:00.343Z,75.78
2018-04-23T16:44:29.406Z,75.76
2018-04-23T16:46:57.745Z,75.13
2018-04-23T16:49:26.132Z,75.61
2018-04-23T16:51:55.253Z,75.90
2018-04-23T16:54:24.360Z,76.18
2018-04-23T16:56:52.661Z,75.83
2018-04-23T16:59:21.035Z,76.04
2018-04-23T17:01:49.487Z,77.09
2018-04-23T17:04:18.143Z,76.57
2018-04-23T17:06:55.720Z,77.01
2018-04-23T17:09:24.300Z,76.76
2018-04-23T17:11:52.937Z,76.72
2018-04-23T17:14:22.708Z,76.83
2018-04-23T17:16:51.570Z,76.48
2018-04-23T17:19:20.617Z,76.24
2018-04-23T17:21:49.224Z,77.08
2018-04-23T17:24:17.748Z,77.30
2018-04-23T17:26:46.223Z,76.96
2018-04-23T17:29:14.719Z,77.16
2018-04-23T17:31:43.478Z,77.04
2018-04-23T17:34:12.051Z,77.53
2018-04-23T17:36:40.570Z,77.00
2018-04-23T17:39:09.942Z,77.33
2018-04-23T17:41:38.462Z,77.67
2018-04-23T17:44:08.100Z,78.02
2018-04-23T17:46:37.521Z,77.93
2018-04-23T17:49:06.518Z,77.83
2018-04-23T17:51:36.019Z,78.19
2018-04-23T17:54:04.826Z,78.13
2018-04-23T17:56:34.266Z,78.17
2018-04-23T17:59:02.820Z,77.52
2018-04-23T18:01:31.272Z,77.15
2018-04-23T18:04:00.110Z,77.67
2018-04-23T18:06:28.649Z,78.27
2018-04-23T18:08:57.123Z,78.06
2018-04-23T18:11:25.805Z,78.42
2018-04-23T18:13:54.598Z,78.30
2018-04-23T18:16:23.398Z,78.85
2018-04-23T18:18:51.738Z,78.69
2018-04-23T18:21:20.767Z,79.86
2018-04-23T18:23:49.378Z,79.41
2018-04-23T18:26:18.143Z,79.47
2018-04-23T18:28:46.997Z,79.52
2018-04-23T18:31:15.553Z,80.46
2018-04-23T18:33:45.275Z,80.73
2018-04-23T18:36:13.647Z,80.33
2018-04-23T18:38:43.184Z,80.73
2018-04-23T18:41:11.943Z,81.38
2018-04-23T18:43:41.265Z,81.52
2018-04-23T18:46:09.959Z,81.66
2018-04-23T18:48:38.647Z,81.12
2018-04-23T18:51:07.264Z,81.36
2018-04-23T18:53:35.718Z,81.79
2018-04-23T18:56:04.490Z,81.88
2018-04-23T18:58:33.002Z,82.02
2018-04-23T19:01:01.379Z,82.70
2018-04-23T19:03:30.167Z,82.17
2018-04-23T19:05:58.799Z,82.94
2018-04-23T19:08:27.360Z,82.60
2018-04-23T19:10:55.929Z,82.31
2018-04-23T19:13:25.467Z,83.08
2018-04-23T19:15:54.482Z,83.46
2018-04-23T19:18:23.199Z,83.85
2018-04-23T19:20:51.751Z,84.00
2018-04-23T19:23:20.412Z,84.09
2018-04-23T19:25:48.828Z,83.39
2018-04-23T19:28:22.641Z,83.92
2018-04-23T19:30:51.354Z,84.14
2018-04-23T19:33:20.909Z,84.89
2018-04-23T19:35:49.424Z,84.89
2018-04-23T19:38:18.898Z,84.85
2018-04-23T19:40:47.483Z,84.12
2018-04-23T19:43:16.252Z,84.53
2018-04-23T19:48:18.608Z,85.44
2018-04-23T19:50:47.257Z,85.05
2018-04-23T19:53:16.614Z,85.33
2018-04-23T19:55:45.136Z,85.28
2018-04-23T19:58:13.549Z,85.58
2018-04-23T20:00:42.729Z,85.64
2018-04-23T20:03:11.168Z,85.59
2018-04-23T20:05:39.540Z,86.04
2018-04-23T20:08:08.093Z,85.30
2018-04-23T20:10:36.716Z,85.98
2018-04-23T20:13:05.048Z,86.55
2018-04-23T20:15:34.194Z,86.69
2018-04-23T20:18:02.482Z,86.72
2018-04-23T20:20:30.783Z,86.00
2018-04-23T20:22:59.885Z,87.01
2018-04-23T20:25:28.103Z,87.23
2018-04-23T20:27:56.369Z,86.39
2018-04-23T20:30:24.677Z,86.62
2018-04-23T20:32:53.798Z,86.94
2018-04-23T20:35:22.828Z,87.23
2018-04-23T20:37:51.132Z,87.81
2018-04-23T20:40:19.719Z,87.78
2018-04-23T20:42:48.276Z,88.17
2018-04-23T20:45:16.549Z,88.00
2018-04-23T20:47:44.846Z,87.72
2018-04-23T20:50:13.188Z,87.45
2018-04-23T20:52:41.538Z,87.86
2018-04-23T20:55:09.949Z,87.99
2018-04-23T20:57:38.235Z,88.83
2018-04-23T21:00:06.543Z,88.87
2018-04-23T21:02:34.904Z,88.39
2018-04-23T21:05:03.184Z,88.68
2018-04-23T21:07:31.470Z,88.30
2018-04-23T21:09:59.765Z,88.81
2018-04-23T21:12:28.820Z,88.35
2018-04-23T21:14:57.698Z,87.95
2018-04-23T21:17:25.978Z,88.34
2018-04-23T21:19:54.253Z,88.81
2018-04-23T21:22:22.566Z,88.65
2018-04-23T21:24:51.108Z,88.44
2018-04-23T21:27:19.378Z,87.96
2018-04-23T21:29:47.759Z,88.60
2018-04-23T21:34:50.610Z,88.64
2018-04-23T21:37:19.701Z,88.84
2018-04-23T21:39:48.751Z,88.53
2018-04-23T21:42:17.039Z,89.90
2018-04-23T21:44:45.286Z,89.87
2018-04-23T21:47:13.587Z,88.77
2018-04-23T21:49:41.885Z,88.72
2018-04-23T21:52:10.221Z,88.72
2018-04-23T21:54:38.551Z,88.92
2018-04-23T21:57:07.696Z,89.16
2018-04-23T21:59:35.890Z,89.12
2018-04-23T22:02:04.457Z,89.67
2018-04-23T22:04:32.704Z,90.08
2018-04-23T22:07:00.991Z,90.81
2018-04-23T22:09:29.399Z,90.79
2018-04-23T22:11:58.042Z,90.97
2018-04-23T22:14:26.351Z,90.44
2018-04-23T22:16:54.639Z,91.49
2018-04-23T22:19:23.155Z,91.46
2018-04-23T22:21:52.183Z,91.10
2018-04-23T22:24:20.454Z,90.32
2018-04-23T22:26:48.764Z,90.83
2018-04-23T22:29:17.066Z,91.39
2018-04-23T22:31:46.099Z,91.24
2018-04-23T22:34:14.417Z,91.84
2018-04-23T22:36:42.710Z,92.21
2018-04-23T22:39:11.768Z,91.85
2018-04-23T22:41:40.060Z,91.24
2018-04-23T22:44:08.350Z,91.07
2018-04-23T22:46:37.391Z,92.23
2018-04-23T22:49:05.690Z,92.77
2018-04-23T22:51:33.962Z,92.19
2018-04-23T22:54:02.238Z,92.79
2018-04-23T22:56:31.300Z,92.89
2018-04-23T22:58:59.601Z,92.80
2018-04-23T23:01:27.884Z,92.46
2018-04-23T23:03:56.154Z,92.47
2018-04-23T23:06:24.482Z,93.09
2018-04-23T23:08:52.845Z,92.89
2018-04-23T23:11:21.897Z,93.06
2018-04-23T23:13:50.173Z,93.25
2018-04-23T23:16:18.463Z,93.15
2018-04-23T23:18:46.726Z,92.12
2018-04-23T23:21:15.014Z,92.42
2018-04-23T23:23:43.323Z,92.60
2018-04-23T23:26:11.637Z,92.71
2018-04-23T23:28:39.907Z,92.55
2018-04-23T23:31:08.235Z,92.83
2018-04-23T23:33:37.301Z,92.67
2018-04-23T23:36:07.193Z,92.75
2018-04-23T23:38:35.489Z,93.09
2018-04-23T23:41:04.210Z,93.33
2018-04-23T23:43:33.257Z,93.35
2018-04-23T23:46:01.534Z,92.59
2018-04-23T23:48:29.816Z,92.69
2018-04-23T23:50:58.092Z,92.51
2018-04-23T23:53:26.376Z,92.21
2018-04-23T23:55:54.702Z,93.30
2018-04-23T23:58:23.013Z,93.03
